createdAt,value
2017-11-17T00:00:38.449Z,4.00
2017-11-17T00:02:30.211Z,4.00
2017-11-17T00:03:30.125Z,4.00
2017-11-17T00:05:21.866Z,4.00
2017-11-17T00:06:21.804Z,4.00
2017-11-17T00:08:13.570Z,4.00
2017-11-17T00:09:13.486Z,4.00
2017-11-17T00:11:05.849Z,4.00
2017-11-17T00:12:05.571Z,4.00
2017-11-17T00:13:57.142Z,4.00
2017-11-17T00:14:57.061Z,4.00
2017-11-17T00:16:48.865Z,4.00
2017-11-17T00:17:48.763Z,4.00
2017-11-17T00:19:40.502Z,4.00
2017-11-17T00:20:40.441Z,4.00
2017-11-17T00:22:32.202Z,4.00
2017-11-17T00:23:32.126Z,4.00
2017-11-17T00:25:23.872Z,4.00
2017-11-17T00:26:23.806Z,4.00
2017-11-17T00:28:15.610Z,4.00
2017-11-17T00:29:15.496Z,4.00
2017-11-17T00:31:07.260Z,4.00
2017-11-17T00:32:07.185Z,4.00
2017-11-17T00:33:58.961Z,4.00
2017-11-17T00:34:58.882Z,4.00
2017-11-17T00:36:50.619Z,4.00
2017-11-17T00:37:50.560Z,4.00
2017-11-17T00:38:50.505Z,4.00
2017-11-17T00:39:50.449Z,4.00
2017-11-17T00:40:50.371Z,4.00
2017-11-17T00:41:50.312Z,4.00
2017-11-17T00:42:50.246Z,4.00
2017-11-17T00:43:50.181Z,0.00
2017-11-17T00:44:50.125Z,0.00
2017-11-17T00:45:50.062Z,0.00
2017-11-17T00:46:50.023Z,0.00
2017-11-17T00:47:49.948Z,0.00
2017-11-17T00:48:49.892Z,0.00
2017-11-17T00:49:49.818Z,0.00
2017-11-17T00:50:49.755Z,0.00
2017-11-17T00:51:49.709Z,0.00
2017-11-17T00:52:49.636Z,0.00
2017-11-17T00:53:49.567Z,0.00
2017-11-17T00:54:49.518Z,0.00
2017-11-17T00:55:49.450Z,0.00
2017-11-17T00:56:49.391Z,0.00
2017-11-17T00:57:49.336Z,0.00
2017-11-17T00:58:49.280Z,0.00
2017-11-17T00:59:49.205Z,0.00
2017-11-17T01:00:49.148Z,0.00
2017-11-17T01:01:49.083Z,0.00
2017-11-17T01:02:49.015Z,0.00
2017-11-17T01:03:48.955Z,0.00
2017-11-17T01:04:48.897Z,0.00
2017-11-17T01:05:48.837Z,0.00
2017-11-17T01:06:48.779Z,0.00
2017-11-17T01:07:48.723Z,0.00
2017-11-17T01:08:48.669Z,0.00
2017-11-17T01:09:48.597Z,0.00
2017-11-17T01:10:48.539Z,0.00
2017-11-17T01:11:48.469Z,0.00
2017-11-17T01:12:48.400Z,0.00
2017-11-17T01:13:48.356Z,0.00
2017-11-17T01:14:48.281Z,0.00
2017-11-17T01:15:48.223Z,0.00
2017-11-17T01:16:48.158Z,0.00
2017-11-17T01:17:48.115Z,0.00
2017-11-17T01:18:48.034Z,0.00
2017-11-17T01:19:48.002Z,0.00
2017-11-17T01:20:47.920Z,0.00
2017-11-17T01:21:47.852Z,0.00
2017-11-17T01:22:47.787Z,0.00
2017-11-17T01:23:47.729Z,0.00
2017-11-17T01:24:47.687Z,0.00
2017-11-17T01:25:47.611Z,0.00
2017-11-17T01:26:47.559Z,0.00
2017-11-17T01:27:47.661Z,0.00
2017-11-17T01:28:48.191Z,0.00
2017-11-17T01:29:47.459Z,0.00
2017-11-17T01:30:48.183Z,0.00
2017-11-17T01:31:48.219Z,0.00
2017-11-17T01:32:47.303Z,0.00
2017-11-17T01:33:47.306Z,0.00
2017-11-17T01:34:47.092Z,0.00
2017-11-17T01:35:48.190Z,0.00
2017-11-17T01:36:47.157Z,0.00
2017-11-17T01:37:47.023Z,0.00
2017-11-17T01:38:46.811Z,0.00
2017-11-17T01:39:46.868Z,0.00
2017-11-17T01:40:46.977Z,0.00
2017-11-17T01:41:47.186Z,0.00
2017-11-17T01:42:47.197Z,0.00
2017-11-17T01:43:47.184Z,0.00
2017-11-17T01:44:46.732Z,0.00
2017-11-17T05:08:40.293Z,0.00
2017-11-17T05:09:40.195Z,0.00
2017-11-17T05:11:31.963Z,0.00
2017-11-17T05:12:31.884Z,0.00
2017-11-17T05:14:23.646Z,0.00
2017-11-17T05:15:23.583Z,0.00
2017-11-17T05:16:23.530Z,0.00
2017-11-17T05:17:23.473Z,0.00
2017-11-17T05:18:23.392Z,0.00
2017-11-17T05:19:23.325Z,0.00
2017-11-17T05:20:23.267Z,0.00
2017-11-17T05:21:23.207Z,0.00
2017-11-17T05:22:23.144Z,0.00
2017-11-17T05:23:23.084Z,0.00
2017-11-17T05:24:23.027Z,0.00
2017-11-17T05:25:22.972Z,0.00
2017-11-17T05:26:22.896Z,0.00
2017-11-17T05:27:22.836Z,0.00
2017-11-17T05:28:22.774Z,0.00
2017-11-17T05:29:22.705Z,0.00
2017-11-17T05:30:22.648Z,0.00
2017-11-17T05:31:22.588Z,0.00
2017-11-17T05:32:22.529Z,0.00
2017-11-17T05:33:22.471Z,0.00
2017-11-17T05:34:22.415Z,0.00
2017-11-17T05:35:22.360Z,0.00
2017-11-17T05:36:22.283Z,0.00
2017-11-17T05:37:22.238Z,0.00
2017-11-17T05:38:22.161Z,0.00
2017-11-17T05:39:22.091Z,0.00
2017-11-17T05:40:22.039Z,0.00
2017-11-17T05:41:21.974Z,0.00
2017-11-17T05:42:21.915Z,0.00
2017-11-17T05:43:21.860Z,0.00
2017-11-17T05:44:21.803Z,0.00
2017-11-17T05:45:21.749Z,0.00
2017-11-17T05:46:21.670Z,0.00
2017-11-17T05:47:21.606Z,0.00
2017-11-17T05:48:21.547Z,0.00
2017-11-17T05:49:21.493Z,0.00
2017-11-17T05:50:21.423Z,0.00
2017-11-17T05:51:21.361Z,0.00
2017-11-17T05:52:21.310Z,0.00
2017-11-17T05:53:21.248Z,0.00
2017-11-17T05:54:21.182Z,0.00
2017-11-17T05:55:21.118Z,4.00
2017-11-17T05:56:21.057Z,4.00
2017-11-17T05:57:20.994Z,0.00
2017-11-17T05:58:20.944Z,4.00
2017-11-17T05:59:20.893Z,4.00
2017-11-17T06:00:20.809Z,4.00
2017-11-17T06:01:20.758Z,4.00
2017-11-17T06:02:20.695Z,8.00
2017-11-17T06:03:20.637Z,8.00
2017-11-17T06:04:20.580Z,12.00
2017-11-17T06:05:20.503Z,12.00
2017-11-17T06:06:20.444Z,12.00
2017-11-17T06:07:20.382Z,16.00
2017-11-17T06:08:20.323Z,16.00
2017-11-17T06:09:20.256Z,16.00
2017-11-17T06:10:20.199Z,20.00
2017-11-17T06:11:20.148Z,24.00
2017-11-17T06:12:20.079Z,28.00
2017-11-17T06:13:20.024Z,36.00
2017-11-17T06:14:19.959Z,40.00
2017-11-17T06:15:19.886Z,48.00
2017-11-17T06:16:19.837Z,52.00
2017-11-17T06:17:19.769Z,56.00
2017-11-17T06:18:19.700Z,64.00
2017-11-17T06:19:19.641Z,76.00
2017-11-17T06:20:19.581Z,84.00
2017-11-17T06:21:19.524Z,88.00
2017-11-17T06:22:19.469Z,96.00
2017-11-17T06:23:19.412Z,112.00
2017-11-17T06:24:19.359Z,144.00
2017-11-17T06:25:19.279Z,160.00
2017-11-17T06:26:19.220Z,192.00
2017-11-17T06:27:19.160Z,224.00
2017-11-17T06:28:19.098Z,248.00
2017-11-17T06:29:19.035Z,276.00
2017-11-17T06:30:18.972Z,296.00
2017-11-17T06:31:18.909Z,324.00
2017-11-17T06:32:18.855Z,352.00
2017-11-17T06:33:18.802Z,388.00
2017-11-17T06:34:18.745Z,412.00
2017-11-17T06:35:18.668Z,452.00
2017-11-17T06:36:18.612Z,488.00
2017-11-17T06:37:18.537Z,520.00
2017-11-17T06:38:18.475Z,560.00
2017-11-17T06:39:18.424Z,596.00
2017-11-17T06:40:18.364Z,632.00
2017-11-17T06:41:18.296Z,672.00
2017-11-17T06:42:18.246Z,712.00
2017-11-17T06:43:18.193Z,756.00
2017-11-17T06:44:18.110Z,800.00
2017-11-17T06:45:18.049Z,848.00
2017-11-17T06:46:17.995Z,900.00
2017-11-17T06:47:17.921Z,956.00
2017-11-17T06:48:17.863Z,1004.00
2017-11-17T06:49:17.801Z,1052.00
2017-11-17T06:50:17.751Z,1104.00
2017-11-17T06:51:17.687Z,1156.00
2017-11-17T06:52:17.619Z,1208.00
2017-11-17T06:53:17.558Z,1256.00
2017-11-17T06:54:17.493Z,1308.00
2017-11-17T06:55:17.433Z,1372.00
2017-11-17T06:56:17.365Z,1444.00
2017-11-17T06:57:17.343Z,1492.00
2017-11-17T06:58:17.248Z,1580.00
2017-11-17T06:59:17.197Z,1616.00
2017-11-17T07:00:17.130Z,1660.00
2017-11-17T07:01:17.074Z,1724.00
2017-11-17T07:02:16.999Z,1804.00
2017-11-17T07:03:16.945Z,1876.00
2017-11-17T07:04:16.875Z,1968.00
2017-11-17T07:05:16.809Z,2084.00
2017-11-17T07:06:16.749Z,2320.00
2017-11-17T07:07:16.694Z,2476.00
2017-11-17T07:08:16.628Z,2624.00
2017-11-17T07:09:16.574Z,2732.00
2017-11-17T07:10:16.518Z,2812.00
2017-11-17T07:11:16.442Z,2876.00
2017-11-17T07:12:16.382Z,2948.00
2017-11-17T07:13:16.318Z,3036.00
2017-11-17T07:14:16.256Z,3116.00
2017-11-17T07:15:16.194Z,3204.00
2017-11-17T07:16:16.140Z,3284.00
2017-11-17T07:17:16.078Z,3372.00
2017-11-17T07:18:16.021Z,3476.00
2017-11-17T07:19:15.963Z,3520.00
2017-11-17T07:20:15.892Z,3600.00
2017-11-17T07:21:15.822Z,3688.00
2017-11-17T07:22:15.772Z,3780.00
2017-11-17T07:23:15.703Z,3864.00
2017-11-17T07:24:15.646Z,3952.00
2017-11-17T07:25:15.578Z,4048.00
2017-11-17T07:26:15.517Z,4104.00
2017-11-17T07:27:15.461Z,4160.00
2017-11-17T07:28:15.405Z,4276.00
2017-11-17T07:29:15.351Z,4416.00
2017-11-17T07:30:15.273Z,4520.00
2017-11-17T07:31:15.216Z,4652.00
2017-11-17T07:32:15.151Z,4728.00
2017-11-17T07:33:15.098Z,4792.00
2017-11-17T07:34:15.025Z,4928.00
2017-11-17T07:35:14.965Z,5040.00
2017-11-17T07:36:14.908Z,5228.00
2017-11-17T07:37:14.850Z,5388.00
2017-11-17T07:38:14.793Z,5540.00
2017-11-17T07:39:14.746Z,5788.00
2017-11-17T07:40:14.669Z,7296.00
2017-11-17T07:41:14.598Z,8504.00
2017-11-17T07:42:14.531Z,9396.00
2017-11-17T07:43:14.475Z,10640.00
2017-11-17T07:44:14.418Z,10100.00
2017-11-17T07:45:14.352Z,12552.00
2017-11-17T07:46:14.294Z,15008.00
2017-11-17T07:47:14.241Z,16064.00
2017-11-17T07:48:14.182Z,16224.00
2017-11-17T07:49:14.108Z,16864.00
2017-11-17T07:50:14.049Z,17696.00
2017-11-17T07:51:13.992Z,18816.00
2017-11-17T07:52:13.928Z,20352.00
2017-11-17T07:53:13.863Z,22016.00
2017-11-17T07:54:13.809Z,22784.00
2017-11-17T07:55:13.745Z,25408.00
2017-11-17T07:56:13.688Z,26336.00
2017-11-17T07:57:13.630Z,26496.00
2017-11-17T07:58:13.574Z,26368.00
2017-11-17T07:59:13.524Z,26016.00
2017-11-17T08:00:13.461Z,26464.00
2017-11-17T08:01:13.408Z,26624.00
2017-11-17T08:02:13.352Z,27168.00
2017-11-17T08:03:13.296Z,28096.00
2017-11-17T08:04:13.242Z,28832.00
2017-11-17T08:05:13.168Z,28960.00
2017-11-17T08:06:13.176Z,29312.00
2017-11-17T08:07:13.054Z,28512.00
2017-11-17T08:08:13.037Z,29472.00
2017-11-17T08:09:12.941Z,30016.00
2017-11-17T08:10:12.888Z,31072.00
2017-11-17T08:11:12.834Z,31360.00
2017-11-17T08:12:12.769Z,31456.00
2017-11-17T08:13:12.731Z,32096.00
2017-11-17T08:14:12.672Z,31744.00
2017-11-17T08:15:12.614Z,31456.00
2017-11-17T08:16:12.557Z,32608.00
2017-11-17T08:17:12.503Z,33184.00
2017-11-17T08:18:12.457Z,34176.00
2017-11-17T08:19:12.394Z,32032.00
2017-11-17T08:20:12.344Z,32032.00
2017-11-17T08:21:12.311Z,32128.00
2017-11-17T08:22:12.234Z,32288.00
2017-11-17T08:23:12.190Z,30240.00
2017-11-17T08:24:12.130Z,32096.00
2017-11-17T08:25:12.094Z,34016.00
2017-11-17T08:26:12.038Z,33664.00
2017-11-17T08:27:11.983Z,11392.00
2017-11-17T08:28:11.929Z,35680.00
2017-11-17T08:29:11.884Z,35424.00
2017-11-17T08:30:11.822Z,32672.00
2017-11-17T08:31:11.772Z,31776.00
2017-11-17T08:32:11.716Z,33504.00
2017-11-17T08:33:11.663Z,32768.00
2017-11-17T08:34:11.619Z,19392.00
2017-11-17T08:35:11.556Z,36864.00
2017-11-17T08:36:11.507Z,34272.00
2017-11-17T08:37:11.459Z,32480.00
2017-11-17T08:38:11.401Z,34752.00
2017-11-17T08:39:11.353Z,35520.00
2017-11-17T08:40:11.304Z,35616.00
2017-11-17T08:41:11.252Z,36544.00
2017-11-17T08:42:11.226Z,37344.00
2017-11-17T08:43:11.151Z,37312.00
2017-11-17T08:44:11.119Z,37056.00
2017-11-17T08:45:11.062Z,35968.00
2017-11-17T08:46:11.008Z,38944.00
2017-11-17T08:47:10.953Z,35776.00
2017-11-17T08:48:10.900Z,35072.00
2017-11-17T08:49:10.847Z,17728.00
2017-11-17T08:50:10.799Z,14524.00
2017-11-17T08:51:10.745Z,30784.00
2017-11-17T08:52:10.705Z,35936.00
2017-11-17T08:53:10.640Z,10808.00
2017-11-17T08:54:10.599Z,35680.00
2017-11-17T08:55:10.561Z,23552.00
2017-11-17T08:56:10.494Z,40160.00
2017-11-17T08:57:10.443Z,38592.00
2017-11-17T08:58:10.392Z,31168.00
2017-11-17T08:59:10.365Z,37504.00
2017-11-17T09:00:10.305Z,32000.00
2017-11-17T09:01:10.261Z,32992.00
2017-11-17T09:02:10.188Z,13856.00
2017-11-17T09:03:10.143Z,31328.00
2017-11-17T09:04:10.088Z,34432.00
2017-11-17T09:05:10.037Z,37152.00
2017-11-17T09:06:10.001Z,36160.00
2017-11-17T09:07:09.934Z,36448.00
2017-11-17T09:08:09.882Z,38400.00
2017-11-17T09:09:09.829Z,38272.00
2017-11-17T09:10:09.783Z,36128.00
2017-11-17T09:13:15.376Z,36352.00
2017-11-17T09:13:40.186Z,33600.00
2017-11-17T09:15:31.972Z,30720.00
2017-11-17T09:16:31.916Z,32736.00
2017-11-17T09:18:23.683Z,34752.00
2017-11-17T09:19:23.623Z,28768.00
2017-11-17T09:21:15.396Z,29184.00
2017-11-17T09:22:15.339Z,31584.00
2017-11-17T09:24:07.146Z,30272.00
2017-11-17T09:25:07.079Z,35552.00
2017-11-17T09:26:58.869Z,30400.00
2017-11-17T09:27:58.815Z,30208.00
2017-11-17T09:29:50.609Z,25440.00
2017-11-17T09:30:50.519Z,17632.00
2017-11-17T09:32:42.300Z,10392.00
2017-11-17T09:33:42.244Z,6644.00
2017-11-17T09:35:34.037Z,10260.00
2017-11-17T09:36:33.973Z,9088.00
2017-11-17T09:38:25.767Z,10000.00
2017-11-17T09:39:25.711Z,10112.00
2017-11-17T09:41:17.456Z,9432.00
2017-11-17T09:42:17.424Z,9916.00
2017-11-17T09:44:09.196Z,9528.00
2017-11-17T09:45:09.128Z,9228.00
2017-11-17T09:46:09.072Z,8924.00
2017-11-17T09:47:09.019Z,8504.00
2017-11-17T09:48:08.965Z,5336.00
2017-11-17T09:49:08.909Z,8588.00
2017-11-17T09:50:08.854Z,8532.00
2017-11-17T09:51:08.799Z,8392.00
2017-11-17T09:52:08.745Z,8348.00
2017-11-17T09:53:08.691Z,8364.00
2017-11-17T09:54:08.637Z,8208.00
2017-11-17T09:55:08.582Z,5620.00
2017-11-17T09:56:08.532Z,8672.00
2017-11-17T09:57:08.479Z,8204.00
2017-11-17T09:58:08.417Z,8008.00
2017-11-17T09:59:08.363Z,7904.00
2017-11-17T10:00:08.313Z,6392.00
2017-11-17T10:01:08.256Z,5288.00
2017-11-17T10:02:08.197Z,5560.00
2017-11-17T10:03:08.143Z,7960.00
2017-11-17T10:04:08.088Z,8640.00
2017-11-17T10:05:08.037Z,8924.00
2017-11-17T10:06:07.977Z,8244.00
2017-11-17T10:07:07.925Z,7936.00
2017-11-17T10:08:07.877Z,7648.00
2017-11-17T10:09:07.813Z,5644.00
2017-11-17T10:10:07.761Z,7440.00
2017-11-17T10:11:07.704Z,7352.00
2017-11-17T10:12:07.649Z,7416.00
2017-11-17T10:13:07.595Z,7692.00
2017-11-17T10:14:07.540Z,7420.00
2017-11-17T10:15:07.485Z,6052.00
2017-11-17T10:16:07.430Z,5272.00
2017-11-17T10:17:07.380Z,5712.00
2017-11-17T10:18:07.320Z,7128.00
2017-11-17T10:19:07.246Z,7020.00
2017-11-17T10:20:07.213Z,6868.00
2017-11-17T10:21:07.137Z,4760.00
2017-11-17T10:22:07.075Z,6632.00
2017-11-17T10:23:07.020Z,6452.00
2017-11-17T10:24:06.977Z,6352.00
2017-11-17T10:25:06.911Z,6204.00
2017-11-17T10:26:06.863Z,5888.00
2017-11-17T10:27:06.801Z,5636.00
2017-11-17T10:28:06.736Z,5380.00
2017-11-17T10:29:06.673Z,5160.00
2017-11-17T10:30:06.619Z,5036.00
2017-11-17T10:31:06.566Z,4992.00
2017-11-17T10:32:06.510Z,4944.00
2017-11-17T10:33:06.453Z,4944.00
2017-11-17T10:34:06.406Z,4880.00
2017-11-17T10:35:06.338Z,4884.00
2017-11-17T10:36:06.280Z,4736.00
2017-11-17T10:37:06.224Z,4940.00
2017-11-17T10:38:06.174Z,5116.00
2017-11-17T10:39:06.110Z,4960.00
2017-11-17T10:40:06.054Z,4820.00
2017-11-17T10:41:06.000Z,4768.00
2017-11-17T10:42:05.931Z,4760.00
2017-11-17T10:43:05.889Z,4736.00
2017-11-17T10:44:05.839Z,4664.00
2017-11-17T10:45:05.779Z,4592.00
2017-11-17T10:46:05.725Z,4584.00
2017-11-17T10:47:05.649Z,4580.00
2017-11-17T10:48:05.592Z,4604.00
2017-11-17T10:49:05.538Z,4652.00
2017-11-17T10:50:05.507Z,4676.00
2017-11-17T10:51:05.417Z,4744.00
2017-11-17T10:52:05.358Z,4796.00
2017-11-17T10:53:05.314Z,4764.00
2017-11-17T10:54:05.236Z,4680.00
2017-11-17T10:55:05.179Z,4604.00
2017-11-17T10:56:05.129Z,4604.00
2017-11-17T10:57:05.074Z,4720.00
2017-11-17T10:58:05.073Z,4772.00
2017-11-17T10:59:04.951Z,4648.00
2017-11-17T11:00:04.904Z,4276.00
2017-11-17T11:01:04.844Z,4852.00
2017-11-17T11:02:04.794Z,5364.00
2017-11-17T11:03:04.730Z,5596.00
2017-11-17T11:04:04.675Z,5776.00
2017-11-17T11:05:04.627Z,5980.00
2017-11-17T11:06:04.547Z,6160.00
2017-11-17T11:07:04.486Z,5800.00
2017-11-17T11:08:04.432Z,5004.00
2017-11-17T11:09:04.372Z,4684.00
2017-11-17T11:10:04.321Z,4708.00
2017-11-17T11:11:04.262Z,4596.00
2017-11-17T11:12:04.190Z,4340.00
2017-11-17T11:13:04.138Z,4276.00
2017-11-17T11:14:04.076Z,4352.00
2017-11-17T11:15:04.022Z,4216.00
2017-11-17T11:16:03.965Z,4060.00
2017-11-17T11:17:03.909Z,4008.00
2017-11-17T11:18:03.853Z,4052.00
2017-11-17T11:19:03.795Z,4116.00
2017-11-17T11:20:03.738Z,4188.00
2017-11-17T11:21:03.682Z,4332.00
2017-11-17T11:22:03.626Z,4304.00
2017-11-17T11:23:03.576Z,4296.00
2017-11-17T11:24:03.495Z,4252.00
2017-11-17T11:25:03.448Z,4168.00
2017-11-17T11:26:03.381Z,4160.00
2017-11-17T11:27:03.319Z,4188.00
2017-11-17T11:28:03.261Z,4396.00
2017-11-17T11:29:03.206Z,4272.00
2017-11-17T11:30:03.152Z,4064.00
2017-11-17T11:31:03.080Z,3984.00
2017-11-17T11:32:03.023Z,3904.00
2017-11-17T11:33:02.968Z,3904.00
2017-11-17T11:34:02.907Z,3912.00
2017-11-17T11:35:02.855Z,3896.00
2017-11-17T11:36:02.796Z,3896.00
2017-11-17T11:37:02.741Z,3912.00
2017-11-17T11:38:02.690Z,3944.00
2017-11-17T11:39:02.633Z,3980.00
2017-11-17T11:40:02.587Z,3920.00
2017-11-17T11:41:02.496Z,3844.00
2017-11-17T11:42:02.435Z,3592.00
2017-11-17T11:43:02.381Z,3708.00
2017-11-17T11:44:02.312Z,3508.00
2017-11-17T11:45:02.256Z,3492.00
2017-11-17T11:46:02.197Z,3488.00
2017-11-17T11:47:02.136Z,3696.00
2017-11-17T11:48:02.087Z,3668.00
2017-11-17T11:49:02.024Z,3660.00
2017-11-17T11:50:01.967Z,3664.00
2017-11-17T11:51:01.911Z,3660.00
2017-11-17T11:52:01.861Z,3648.00
2017-11-17T11:53:01.810Z,3616.00
2017-11-17T11:54:01.731Z,3604.00
2017-11-17T11:55:01.675Z,3608.00
2017-11-17T11:56:01.609Z,3624.00
2017-11-17T11:57:01.552Z,3644.00
2017-11-17T11:58:01.499Z,3664.00
2017-11-17T11:59:01.423Z,3672.00
2017-11-17T12:00:01.388Z,3636.00
2017-11-17T12:01:01.319Z,3520.00
2017-11-17T12:02:01.257Z,3928.00
2017-11-17T12:03:01.193Z,4176.00
2017-11-17T12:04:01.138Z,4380.00
2017-11-17T12:05:01.086Z,4576.00
2017-11-17T12:06:01.025Z,4640.00
2017-11-17T12:07:00.973Z,4512.00
2017-11-17T12:08:00.899Z,4436.00
2017-11-17T12:09:00.852Z,4368.00
2017-11-17T12:10:00.781Z,4208.00
2017-11-17T12:11:00.739Z,4164.00
2017-11-17T12:12:00.654Z,4128.00
2017-11-17T12:13:00.601Z,4048.00
2017-11-17T12:14:00.562Z,3956.00
2017-11-17T12:15:00.495Z,3876.00
2017-11-17T12:16:00.424Z,3852.00
2017-11-17T12:17:00.374Z,3800.00
2017-11-17T12:18:00.308Z,3796.00
2017-11-17T12:19:00.273Z,3884.00
2017-11-17T12:20:00.206Z,3944.00
2017-11-17T12:21:00.149Z,4024.00
2017-11-17T12:22:00.089Z,4152.00
2017-11-17T12:23:00.003Z,4252.00
2017-11-17T12:23:59.954Z,4308.00
2017-11-17T12:24:59.899Z,4304.00
2017-11-17T12:25:59.824Z,4372.00
2017-11-17T12:26:59.800Z,4380.00
2017-11-17T12:27:59.715Z,4292.00
2017-11-17T12:28:59.653Z,4236.00
2017-11-17T12:29:59.588Z,4180.00
2017-11-17T12:30:59.540Z,4180.00
2017-11-17T12:31:59.487Z,4376.00
2017-11-17T12:32:59.432Z,4440.00
2017-11-17T12:33:59.366Z,4388.00
2017-11-17T12:34:59.331Z,4420.00
2017-11-17T12:35:59.233Z,4420.00
2017-11-17T12:36:59.176Z,4372.00
2017-11-17T12:37:59.119Z,4192.00
2017-11-17T12:38:59.072Z,3828.00
2017-11-17T12:39:58.991Z,3688.00
2017-11-17T12:40:58.937Z,3864.00
2017-11-17T12:41:58.906Z,3816.00
2017-11-17T12:42:58.818Z,4512.00
2017-11-17T12:43:58.761Z,4864.00
2017-11-17T12:44:58.702Z,4924.00
2017-11-17T12:45:58.650Z,4928.00
2017-11-17T12:46:58.594Z,4532.00
2017-11-17T12:47:58.536Z,4276.00
2017-11-17T12:48:58.481Z,4020.00
2017-11-17T12:49:58.412Z,4092.00
2017-11-17T12:50:58.376Z,4256.00
2017-11-17T12:51:58.292Z,4280.00
2017-11-17T12:52:58.232Z,4200.00
2017-11-17T12:53:58.185Z,4200.00
2017-11-17T12:54:58.104Z,4352.00
2017-11-17T12:55:58.058Z,4568.00
2017-11-17T12:56:58.019Z,4524.00
2017-11-17T12:57:57.927Z,4472.00
2017-11-17T12:58:57.874Z,4492.00
2017-11-17T12:59:57.838Z,4884.00
2017-11-17T13:00:57.761Z,4916.00
2017-11-17T13:01:57.692Z,4992.00
2017-11-17T13:02:57.654Z,5660.00
2017-11-17T13:03:57.574Z,5800.00
2017-11-17T13:04:57.513Z,5492.00
2017-11-17T13:05:57.453Z,5032.00
2017-11-17T13:06:57.398Z,4568.00
2017-11-17T13:07:57.331Z,3996.00
2017-11-17T13:08:58.295Z,3840.00
2017-11-17T13:09:58.279Z,3780.00
2017-11-17T13:10:57.860Z,3584.00
2017-11-17T13:11:57.854Z,3168.00
2017-11-17T13:12:57.780Z,3012.00
2017-11-17T13:14:00.782Z,2932.00
2017-11-17T13:14:57.157Z,2944.00
2017-11-17T13:15:57.886Z,2972.00
2017-11-17T13:16:57.788Z,3140.00
2017-11-17T13:17:57.283Z,2956.00
2017-11-17T13:18:57.291Z,3108.00
2017-11-17T13:50:42.466Z,2392.00
2017-11-17T13:51:42.388Z,2348.00
2017-11-17T13:53:34.173Z,2284.00
2017-11-17T13:54:34.084Z,2268.00
2017-11-17T13:56:25.853Z,2236.00
2017-11-17T13:57:25.795Z,2208.00
2017-11-17T13:59:17.537Z,2160.00
2017-11-17T14:00:17.477Z,2120.00
2017-11-17T14:02:09.237Z,2088.00
2017-11-17T14:03:09.160Z,2084.00
2017-11-17T14:05:01.920Z,2088.00
2017-11-17T14:06:01.859Z,2076.00
2017-11-17T14:07:54.623Z,2040.00
2017-11-17T14:08:54.558Z,2024.00
2017-11-17T14:10:46.302Z,1976.00
2017-11-17T14:11:46.241Z,1956.00
2017-11-17T14:13:38.031Z,1920.00
2017-11-17T14:14:37.939Z,1900.00
2017-11-17T14:16:29.692Z,1856.00
2017-11-17T14:17:29.627Z,1832.00
2017-11-17T14:19:22.406Z,1784.00
2017-11-17T14:20:22.321Z,1764.00
2017-11-17T14:22:14.084Z,1724.00
2017-11-17T14:23:14.007Z,1688.00
2017-11-17T14:25:05.769Z,1660.00
2017-11-17T14:26:05.705Z,1640.00
2017-11-17T14:27:57.465Z,1584.00
2017-11-17T14:28:57.392Z,1556.00
2017-11-17T14:30:49.157Z,1508.00
2017-11-17T14:31:49.087Z,1472.00
2017-11-17T14:33:40.859Z,1416.00
2017-11-17T14:34:40.797Z,1384.00
2017-11-17T14:36:32.541Z,1324.00
2017-11-17T14:37:32.474Z,1292.00
2017-11-17T14:39:24.230Z,1232.00
2017-11-17T14:40:24.155Z,1196.00
2017-11-17T14:42:15.912Z,1136.00
2017-11-17T14:43:15.841Z,1100.00
2017-11-17T14:45:07.620Z,1036.00
2017-11-17T14:46:07.539Z,1000.00
2017-11-17T14:47:59.298Z,936.00
2017-11-17T14:48:59.242Z,900.00
2017-11-17T14:50:50.983Z,836.00
2017-11-17T14:51:50.919Z,800.00
2017-11-17T14:53:42.664Z,740.00
2017-11-17T14:54:42.601Z,708.00
2017-11-17T14:56:34.364Z,644.00
2017-11-17T14:57:34.285Z,612.00
2017-11-17T14:59:26.065Z,556.00
2017-11-17T15:00:25.979Z,520.00
2017-11-17T15:02:18.228Z,464.00
2017-11-17T15:03:18.156Z,436.00
2017-11-17T15:04:18.096Z,408.00
2017-11-17T15:05:18.037Z,380.00
2017-11-17T15:06:17.979Z,356.00
2017-11-17T15:07:17.922Z,328.00
2017-11-17T15:08:17.863Z,304.00
2017-11-17T15:09:17.812Z,280.00
2017-11-17T15:10:17.753Z,256.00
2017-11-17T15:11:17.685Z,236.00
2017-11-17T15:12:17.620Z,216.00
2017-11-17T15:13:17.576Z,196.00
2017-11-17T15:14:17.494Z,176.00
2017-11-17T15:15:17.429Z,160.00
2017-11-17T15:16:17.370Z,144.00
2017-11-17T15:17:17.316Z,128.00
2017-11-17T15:18:17.253Z,112.00
2017-11-17T15:19:17.197Z,100.00
2017-11-17T15:20:17.141Z,88.00
2017-11-17T15:21:17.066Z,76.00
2017-11-17T15:22:17.033Z,68.00
2017-11-17T15:23:16.944Z,56.00
2017-11-17T15:24:16.877Z,52.00
2017-11-17T15:25:16.820Z,48.00
2017-11-17T15:26:16.757Z,36.00
2017-11-17T15:27:16.704Z,36.00
2017-11-17T15:28:16.641Z,28.00
2017-11-17T15:29:16.585Z,24.00
2017-11-17T15:30:16.530Z,24.00
2017-11-17T15:31:16.449Z,16.00
2017-11-17T15:32:16.405Z,16.00
2017-11-17T15:33:16.332Z,12.00
2017-11-17T15:34:16.270Z,12.00
2017-11-17T15:35:16.206Z,8.00
2017-11-17T15:36:16.148Z,8.00
2017-11-17T15:37:16.089Z,8.00
2017-11-17T15:38:16.034Z,8.00
2017-11-17T15:39:15.966Z,8.00
2017-11-17T15:40:15.919Z,4.00
2017-11-17T15:41:15.842Z,4.00
2017-11-17T15:42:15.781Z,4.00
2017-11-17T15:43:15.721Z,0.00
2017-11-17T15:44:15.651Z,4.00
2017-11-17T15:45:15.594Z,4.00
2017-11-17T15:46:15.534Z,0.00
2017-11-17T15:47:15.475Z,0.00
2017-11-17T15:48:15.417Z,0.00
2017-11-17T15:49:15.362Z,4.00
2017-11-17T15:50:15.308Z,4.00
2017-11-17T15:51:15.228Z,4.00
2017-11-17T15:52:15.168Z,4.00
2017-11-17T15:53:15.106Z,4.00
2017-11-17T15:54:15.044Z,0.00
2017-11-17T15:55:14.980Z,0.00
2017-11-17T15:56:14.921Z,0.00
2017-11-17T15:57:14.862Z,0.00
2017-11-17T15:58:14.805Z,0.00
2017-11-17T15:59:14.737Z,0.00
2017-11-17T16:00:14.695Z,0.00
2017-11-17T16:01:14.613Z,0.00
2017-11-17T16:02:14.558Z,0.00
2017-11-17T16:03:14.482Z,0.00
2017-11-17T16:04:14.424Z,0.00
2017-11-17T16:05:14.367Z,0.00
2017-11-17T16:06:14.305Z,0.00
2017-11-17T16:07:14.256Z,0.00
2017-11-17T16:08:14.202Z,0.00
2017-11-17T16:09:14.138Z,0.00
2017-11-17T16:10:14.059Z,0.00
2017-11-17T16:11:13.998Z,0.00
2017-11-17T16:12:13.937Z,0.00
2017-11-17T16:13:13.869Z,0.00
2017-11-17T16:14:13.821Z,0.00
2017-11-17T16:15:13.751Z,0.00
2017-11-17T16:16:13.693Z,0.00
2017-11-17T16:17:13.637Z,0.00
2017-11-17T16:18:13.582Z,0.00
2017-11-17T16:19:13.504Z,0.00
2017-11-17T16:20:13.444Z,0.00
2017-11-17T16:21:13.383Z,0.00
2017-11-17T16:22:13.312Z,0.00
2017-11-17T16:23:13.255Z,0.00
2017-11-17T16:24:13.197Z,0.00
2017-11-17T16:25:13.137Z,0.00
2017-11-17T16:26:13.079Z,0.00
2017-11-17T16:27:13.026Z,0.00
2017-11-17T16:28:12.949Z,0.00
2017-11-17T16:29:12.886Z,0.00
2017-11-17T16:30:12.828Z,0.00
2017-11-17T16:31:12.755Z,0.00
2017-11-17T16:32:12.697Z,0.00
2017-11-17T16:33:12.642Z,0.00
2017-11-17T16:34:12.576Z,0.00
2017-11-17T16:35:12.518Z,0.00
2017-11-17T16:36:12.465Z,0.00
2017-11-17T16:37:12.417Z,0.00
2017-11-17T16:38:12.329Z,0.00
2017-11-17T16:39:12.267Z,0.00
2017-11-17T16:40:12.199Z,0.00
2017-11-17T16:41:12.140Z,0.00
2017-11-17T16:42:12.084Z,0.00
2017-11-17T16:43:12.024Z,0.00
2017-11-17T16:44:11.965Z,0.00
2017-11-17T16:45:11.910Z,0.00
2017-11-17T16:46:11.834Z,0.00
2017-11-17T16:47:11.770Z,0.00
2017-11-17T16:48:11.705Z,0.00
2017-11-17T16:49:11.641Z,0.00
2017-11-17T16:50:11.581Z,0.00
2017-11-17T16:51:11.521Z,0.00
2017-11-17T16:52:11.464Z,0.00
2017-11-17T16:53:11.400Z,0.00
2017-11-17T16:54:11.354Z,0.00
2017-11-17T16:55:11.276Z,0.00
2017-11-17T16:56:11.214Z,0.00
2017-11-17T16:57:11.144Z,0.00
2017-11-17T16:58:11.083Z,0.00
2017-11-17T16:59:11.025Z,0.00
2017-11-17T17:00:10.964Z,0.00
2017-11-17T17:01:10.908Z,0.00
2017-11-17T17:02:10.851Z,0.00
2017-11-17T17:03:10.796Z,0.00
2017-11-17T17:04:10.716Z,0.00
2017-11-17T17:05:10.652Z,0.00
2017-11-17T17:06:10.584Z,0.00
2017-11-17T17:07:10.527Z,0.00